createdAt,value
2022-11-24T00:01:15.728Z,9.90
2022-11-24T00:03:44.329Z,10.00
2022-11-24T00:06:14.017Z,10.00
2022-11-24T00:08:43.609Z,10.00
2022-11-24T00:11:15.331Z,10.00
2022-11-24T00:13:43.845Z,10.00
2022-11-24T00:16:13.493Z,10.00
2022-11-24T00:18:43.017Z,10.00
2022-11-24T00:21:11.539Z,10.00
2022-11-24T00:23:39.817Z,10.00
2022-11-24T00:26:09.718Z,10.00
2022-11-24T00:28:39.793Z,10.00
2022-11-24T00:31:17.754Z,10.00
2022-11-24T00:33:46.458Z,10.00
2022-11-24T00:36:15.208Z,10.00
2022-11-24T00:38:43.288Z,10.00
2022-11-24T00:41:11.346Z,10.00
2022-11-24T00:43:40.916Z,10.00
2022-11-24T00:46:09.049Z,10.10
2022-11-24T00:48:37.136Z,10.00
2022-11-24T00:51:07.368Z,10.10
2022-11-24T00:53:36.006Z,10.10
2022-11-24T00:56:04.685Z,10.10
2022-11-24T00:58:33.711Z,10.10
2022-11-24T01:01:08.134Z,10.10
2022-11-24T01:03:36.524Z,10.10
2022-11-24T01:06:06.565Z,10.10
2022-11-24T01:08:34.942Z,10.10
2022-11-24T01:11:13.383Z,10.10
2022-11-24T01:13:42.255Z,10.10
2022-11-24T01:16:18.813Z,10.10
2022-11-24T01:18:46.993Z,10.10
2022-11-24T01:21:15.755Z,10.10
2022-11-24T01:23:43.957Z,10.10
2022-11-24T01:26:14.592Z,10.10
2022-11-24T01:28:47.118Z,10.00
2022-11-24T01:31:17.723Z,10.10
2022-11-24T01:33:45.918Z,10.00
2022-11-24T01:36:14.032Z,10.00
2022-11-24T01:38:42.158Z,10.10
2022-11-24T01:41:14.228Z,10.00
2022-11-24T01:43:42.960Z,10.10
2022-11-24T01:46:19.154Z,10.00
2022-11-24T01:48:52.663Z,10.00
2022-11-24T01:51:24.790Z,10.10
2022-11-24T01:53:58.211Z,10.10
2022-11-24T01:56:27.419Z,10.10
2022-11-24T01:58:57.814Z,10.10
2022-11-24T02:01:27.725Z,10.00
2022-11-24T02:03:56.786Z,10.10
2022-11-24T02:06:28.825Z,10.00
2022-11-24T02:09:00.116Z,10.00
2022-11-24T02:11:31.489Z,10.00
2022-11-24T02:13:59.745Z,10.00
2022-11-24T02:16:29.809Z,10.00
2022-11-24T02:18:58.080Z,10.00
2022-11-24T02:21:26.259Z,10.00
2022-11-24T02:24:01.963Z,10.00
2022-11-24T02:26:43.453Z,10.00
2022-11-24T02:29:12.653Z,10.00
2022-11-24T02:31:45.531Z,10.00
2022-11-24T02:34:13.512Z,10.00
2022-11-24T02:36:41.548Z,10.00
2022-11-24T02:39:13.226Z,10.00
2022-11-24T02:41:45.805Z,10.00
2022-11-24T02:44:16.599Z,10.00
2022-11-24T02:46:44.700Z,10.00
2022-11-24T02:49:12.750Z,10.00
2022-11-24T02:51:40.776Z,10.10
2022-11-24T02:54:08.774Z,10.10
2022-11-24T02:56:36.760Z,10.10
2022-11-24T02:59:06.110Z,10.10
2022-11-24T03:01:34.205Z,10.10
2022-11-24T03:04:02.249Z,10.10
2022-11-24T03:06:30.229Z,10.10
2022-11-24T03:08:58.230Z,10.10
2022-11-24T03:11:26.276Z,10.10
2022-11-24T03:13:54.442Z,10.10
2022-11-24T03:16:23.969Z,10.10
2022-11-24T03:18:52.313Z,10.10
2022-11-24T03:21:20.448Z,10.10
2022-11-24T03:23:48.480Z,10.10
2022-11-24T03:26:18.970Z,10.10
2022-11-24T03:28:47.008Z,10.10
2022-11-24T03:31:15.491Z,10.10
2022-11-24T03:33:44.957Z,10.10
2022-11-24T03:36:12.967Z,10.10
2022-11-24T03:38:41.144Z,10.10
2022-11-24T03:41:09.221Z,10.20
2022-11-24T03:43:43.206Z,10.10
2022-11-24T03:46:12.706Z,10.10
2022-11-24T03:48:41.370Z,10.10
2022-11-24T03:51:11.456Z,10.10
2022-11-24T03:53:39.513Z,10.10
2022-11-24T03:56:07.971Z,10.10
2022-11-24T03:58:36.207Z,10.10
2022-11-24T04:01:04.280Z,10.10
2022-11-24T04:03:32.368Z,10.10
2022-11-24T04:06:00.363Z,10.10
2022-11-24T04:08:29.910Z,10.10
2022-11-24T04:10:57.958Z,10.10
2022-11-24T04:13:27.341Z,10.10
2022-11-24T04:15:55.792Z,10.00
2022-11-24T04:18:24.056Z,10.00
2022-11-24T04:20:52.463Z,10.00
2022-11-24T04:23:20.766Z,10.00
2022-11-24T04:25:49.997Z,10.00
2022-11-24T04:28:17.859Z,10.00
2022-11-24T04:30:45.732Z,10.00
2022-11-24T04:33:14.259Z,10.00
2022-11-24T04:35:42.236Z,10.00
2022-11-24T04:38:10.175Z,10.00
2022-11-24T04:40:38.938Z,10.00
2022-11-24T04:43:08.154Z,10.00
2022-11-24T04:45:36.187Z,10.00
2022-11-24T04:48:04.344Z,10.00
2022-11-24T04:50:32.332Z,10.00
2022-11-24T04:53:00.239Z,10.00
2022-11-24T04:55:28.156Z,10.00
2022-11-24T04:57:56.159Z,10.10
2022-11-24T05:00:25.450Z,10.10
2022-11-24T05:02:53.346Z,10.10
2022-11-24T05:05:21.261Z,10.10
2022-11-24T05:07:49.185Z,10.10
2022-11-24T05:10:36.310Z,10.10
2022-11-24T05:13:06.879Z,10.10
2022-11-24T05:15:37.730Z,10.10
2022-11-24T05:18:07.091Z,10.10
2022-11-24T05:20:35.228Z,10.10
2022-11-24T05:23:04.330Z,10.10
2022-11-24T05:25:32.505Z,10.20
2022-11-24T05:28:01.229Z,10.10
2022-11-24T05:30:29.453Z,10.10
2022-11-24T05:32:58.793Z,10.10
2022-11-24T05:35:26.766Z,10.20
2022-11-24T05:37:55.158Z,10.20
2022-11-24T05:40:23.162Z,10.20
2022-11-24T05:42:51.452Z,10.20
2022-11-24T05:45:21.479Z,10.20
2022-11-24T05:47:50.641Z,10.20
2022-11-24T05:50:21.757Z,10.20
2022-11-24T05:52:50.273Z,10.20
2022-11-24T05:55:19.399Z,10.20
2022-11-24T05:57:47.321Z,10.20
2022-11-24T06:00:17.916Z,10.20
2022-11-24T06:02:46.023Z,10.20
2022-11-24T06:05:14.035Z,10.20
2022-11-24T06:07:44.507Z,10.20
2022-11-24T06:10:12.554Z,10.20
2022-11-24T06:12:40.465Z,10.20
2022-11-24T06:15:09.294Z,10.20
2022-11-24T06:17:37.224Z,10.30
2022-11-24T06:20:06.143Z,10.20
2022-11-24T06:22:34.164Z,10.30
2022-11-24T06:25:03.493Z,10.30
2022-11-24T06:27:32.299Z,10.30
2022-11-24T06:30:00.781Z,10.30
2022-11-24T06:32:28.694Z,10.30
2022-11-24T06:34:56.654Z,10.30
2022-11-24T06:37:24.569Z,10.30
2022-11-24T06:39:52.493Z,10.30
2022-11-24T06:42:21.755Z,10.30
2022-11-24T06:44:49.839Z,10.30
2022-11-24T06:47:17.754Z,10.30
2022-11-24T06:49:45.690Z,10.30
2022-11-24T06:52:13.591Z,10.40
2022-11-24T06:54:41.500Z,10.40
2022-11-24T06:57:09.469Z,10.40
2022-11-24T06:59:38.782Z,10.40
2022-11-24T07:02:06.759Z,10.40
2022-11-24T07:04:34.936Z,10.40
2022-11-24T07:07:03.885Z,10.40
2022-11-24T07:09:31.855Z,10.40
2022-11-24T07:11:59.760Z,10.40
2022-11-24T07:14:27.624Z,10.40
2022-11-24T07:16:56.922Z,10.50
2022-11-24T07:19:25.430Z,10.50
2022-11-24T07:21:53.672Z,10.50
2022-11-24T07:24:21.575Z,10.50
2022-11-24T07:26:49.467Z,10.50
2022-11-24T07:29:17.378Z,10.60
2022-11-24T07:31:46.054Z,10.60
2022-11-24T07:34:15.673Z,10.60
2022-11-24T07:36:45.116Z,10.60
2022-11-24T07:39:13.131Z,10.60
2022-11-24T07:41:41.121Z,10.60
2022-11-24T07:44:09.169Z,10.60
2022-11-24T07:46:37.130Z,10.60
2022-11-24T07:49:05.141Z,10.70
2022-11-24T07:51:34.410Z,10.70
2022-11-24T07:54:02.337Z,10.80
2022-11-24T07:56:30.258Z,10.90
2022-11-24T07:58:58.166Z,11.00
2022-11-24T08:01:26.140Z,11.10
2022-11-24T08:03:54.186Z,11.30
2022-11-24T08:06:26.054Z,11.40
2022-11-24T08:08:56.929Z,11.50
2022-11-24T08:11:25.006Z,11.60
2022-11-24T08:13:53.171Z,11.60
2022-11-24T08:16:21.834Z,11.70
2022-11-24T08:18:54.627Z,11.80
2022-11-24T08:21:23.878Z,11.90
2022-11-24T08:23:57.169Z,11.90
2022-11-24T08:26:26.375Z,12.00
2022-11-24T08:28:56.615Z,12.10
2022-11-24T08:31:24.867Z,12.20
2022-11-24T08:33:52.923Z,12.20
2022-11-24T08:36:21.249Z,12.30
2022-11-24T08:38:49.991Z,12.40
2022-11-24T08:41:19.267Z,12.50
2022-11-24T08:43:47.189Z,12.60
2022-11-24T08:46:17.619Z,12.80
2022-11-24T08:48:48.599Z,12.90
2022-11-24T08:51:18.665Z,13.00
2022-11-24T08:53:46.840Z,13.10
2022-11-24T08:56:15.199Z,13.30
2022-11-24T08:58:44.498Z,13.30
2022-11-24T09:01:14.379Z,13.30
2022-11-24T09:03:48.522Z,13.40
2022-11-24T09:06:19.638Z,13.30
2022-11-24T09:08:48.458Z,13.40
2022-11-24T09:11:17.676Z,13.30
2022-11-24T09:13:47.184Z,13.40
2022-11-24T09:16:17.227Z,13.40
2022-11-24T09:18:45.616Z,13.40
2022-11-24T09:21:15.105Z,13.50
2022-11-24T09:23:44.062Z,13.50
2022-11-24T09:26:14.455Z,13.50
2022-11-24T09:28:42.902Z,13.60
2022-11-24T09:31:14.184Z,13.50
2022-11-24T09:33:42.903Z,13.60
2022-11-24T09:36:10.988Z,13.60
2022-11-24T09:38:39.173Z,13.60
2022-11-24T09:41:31.701Z,13.70
2022-11-24T09:44:05.683Z,13.90
2022-11-24T09:46:43.457Z,13.90
2022-11-24T09:49:17.601Z,14.00
2022-11-24T09:51:47.815Z,14.10
2022-11-24T09:54:20.299Z,14.20
2022-11-24T09:56:51.110Z,14.20
2022-11-24T09:59:22.012Z,14.20
2022-11-24T10:01:52.376Z,14.20
2022-11-24T10:04:23.589Z,14.20
2022-11-24T10:07:01.148Z,14.20
2022-11-24T10:09:45.218Z,14.20
2022-11-24T10:12:27.530Z,14.20
2022-11-24T10:15:04.930Z,14.20
2022-11-24T10:17:56.173Z,14.20
2022-11-24T10:20:34.665Z,14.30
2022-11-24T10:23:13.149Z,14.30
2022-11-24T10:25:48.920Z,14.20
2022-11-24T10:28:17.399Z,14.10
2022-11-24T10:30:45.534Z,14.00
2022-11-24T10:33:19.055Z,13.90
2022-11-24T10:35:50.825Z,13.80
2022-11-24T10:38:32.117Z,13.70
2022-11-24T10:41:05.210Z,13.50
2022-11-24T10:43:33.136Z,13.40
2022-11-24T10:46:11.460Z,13.30
2022-11-24T10:48:44.413Z,13.20
2022-11-24T10:51:37.501Z,13.10
2022-11-24T10:54:12.280Z,13.00
2022-11-24T10:56:41.593Z,12.90
2022-11-24T10:59:23.379Z,12.70
2022-11-24T11:01:51.565Z,12.60
2022-11-24T11:04:22.721Z,12.50
2022-11-24T11:06:50.708Z,12.40
2022-11-24T11:09:20.915Z,12.30
2022-11-24T11:11:49.799Z,12.30
2022-11-24T11:14:31.464Z,12.20
2022-11-24T11:16:59.481Z,12.10
2022-11-24T11:19:48.991Z,12.10
2022-11-24T11:22:25.720Z,12.10
2022-11-24T11:25:05.801Z,12.00
2022-11-24T11:27:34.122Z,11.90
2022-11-24T11:36:12.336Z,11.80
2022-11-24T11:38:41.347Z,11.70
2022-11-24T11:41:18.043Z,11.60
2022-11-24T11:43:48.101Z,11.60
2022-11-24T11:46:17.057Z,11.50
2022-11-24T11:48:47.088Z,11.50
2022-11-24T11:51:32.963Z,11.50
2022-11-24T11:54:07.709Z,11.50
2022-11-24T11:56:40.799Z,11.40
2022-11-24T11:59:33.846Z,11.40
2022-11-24T12:02:32.055Z,11.40
2022-11-24T12:05:02.360Z,11.30
2022-11-24T12:07:48.540Z,11.30
2022-11-24T12:10:25.657Z,11.30
2022-11-24T12:13:09.470Z,11.20
2022-11-24T12:15:41.963Z,11.20
2022-11-24T12:18:55.112Z,11.10
2022-11-24T12:21:24.649Z,11.10
2022-11-24T12:24:05.741Z,11.00
2022-11-24T12:26:44.391Z,11.10
2022-11-24T12:29:36.863Z,11.10
2022-11-24T12:32:12.919Z,11.10
2022-11-24T12:34:50.169Z,11.10
2022-11-24T12:37:30.620Z,11.10
2022-11-24T12:40:06.659Z,11.20
2022-11-24T12:42:44.706Z,11.20
2022-11-24T12:45:16.189Z,11.20
2022-11-24T12:47:58.972Z,11.20
2022-11-24T12:50:30.199Z,11.30
2022-11-24T12:53:03.369Z,11.30
2022-11-24T12:55:34.705Z,11.40
2022-11-24T12:58:11.474Z,11.40
2022-11-24T13:00:54.689Z,11.40
2022-11-24T13:03:32.580Z,11.40
2022-11-24T13:06:06.484Z,11.50
2022-11-24T13:08:37.815Z,11.50
2022-11-24T13:11:35.757Z,11.60
2022-11-24T13:14:07.765Z,11.60
2022-11-24T13:16:44.427Z,11.70
2022-11-24T13:19:26.231Z,11.80
2022-11-24T13:22:16.668Z,11.80
2022-11-24T13:24:45.401Z,11.90
2022-11-24T13:27:44.978Z,11.90
2022-11-24T13:30:52.876Z,11.90
2022-11-24T13:33:33.313Z,11.90
2022-11-24T13:36:35.476Z,11.90
2022-11-24T13:39:05.568Z,11.90
2022-11-24T13:42:10.391Z,11.90
2022-11-24T13:45:00.636Z,11.90
2022-11-24T13:47:40.701Z,11.80
2022-11-24T13:50:24.981Z,11.80
2022-11-24T13:53:00.853Z,11.80
2022-11-24T13:55:35.026Z,11.80
2022-11-24T13:58:27.239Z,11.70
2022-11-24T14:01:04.917Z,11.70
2022-11-24T14:03:35.625Z,11.70
2022-11-24T14:06:04.272Z,11.70
2022-11-24T14:08:35.108Z,11.70
2022-11-24T14:11:04.308Z,11.60
2022-11-24T14:13:33.900Z,11.60
2022-11-24T14:16:05.704Z,11.50
2022-11-24T14:18:35.172Z,11.50
2022-11-24T14:21:27.444Z,11.40
2022-11-24T14:23:57.869Z,11.30
2022-11-24T14:26:31.394Z,11.30
2022-11-24T14:29:06.434Z,11.20
2022-11-24T14:31:35.789Z,11.10
2022-11-24T14:34:18.151Z,11.10
2022-11-24T14:36:46.088Z,11.10
2022-11-24T14:39:15.328Z,11.10
2022-11-24T14:41:45.364Z,11.00
2022-11-24T14:44:18.636Z,11.00
2022-11-24T14:46:48.356Z,11.00
2022-11-24T14:49:21.808Z,11.00
2022-11-24T14:51:56.902Z,11.00
2022-11-24T14:54:25.591Z,10.90
2022-11-24T14:56:59.152Z,10.90
2022-11-24T14:59:29.379Z,10.90
2022-11-24T15:01:59.535Z,10.90
2022-11-24T15:07:23.202Z,10.80
2022-11-24T15:09:53.908Z,10.80
2022-11-24T15:12:30.488Z,10.70
2022-11-24T15:15:01.394Z,10.70
2022-11-24T15:17:31.647Z,10.70
2022-11-24T15:20:03.839Z,10.60
2022-11-24T15:22:40.286Z,10.60
2022-11-24T15:25:29.147Z,10.60
2022-11-24T15:27:57.141Z,10.50
2022-11-24T15:30:25.116Z,10.50
2022-11-24T15:32:55.914Z,10.40
2022-11-24T15:35:25.131Z,10.40
2022-11-24T15:37:53.522Z,10.30
2022-11-24T15:40:21.663Z,10.30
2022-11-24T15:42:53.206Z,10.20
2022-11-24T15:45:22.703Z,10.20
2022-11-24T15:47:50.940Z,10.20
2022-11-24T15:50:21.028Z,10.10
2022-11-24T15:52:50.242Z,10.10
2022-11-24T15:55:20.519Z,10.00
2022-11-24T15:57:49.135Z,10.00
2022-11-24T16:00:19.382Z,10.00
2022-11-24T16:02:47.376Z,9.90
2022-11-24T16:05:16.274Z,9.90
2022-11-24T16:07:45.870Z,9.80
2022-11-24T16:10:24.594Z,9.80
2022-11-24T16:12:52.636Z,9.80
2022-11-24T16:15:20.580Z,9.70
2022-11-24T16:17:49.061Z,9.70
2022-11-24T16:20:17.282Z,9.70
2022-11-24T16:22:46.658Z,9.70
2022-11-24T16:25:15.237Z,9.70
2022-11-24T16:27:43.305Z,9.70
2022-11-24T16:30:13.674Z,9.70
2022-11-24T16:32:41.620Z,9.70
2022-11-24T16:35:09.795Z,9.80
2022-11-24T16:37:37.849Z,9.80
2022-11-24T16:40:08.445Z,9.80
2022-11-24T16:42:36.401Z,9.80
2022-11-24T16:45:04.683Z,9.90
2022-11-24T16:47:32.564Z,9.90
2022-11-24T16:50:00.526Z,9.90
2022-11-24T16:52:28.500Z,9.90
2022-11-24T16:54:56.466Z,9.90
2022-11-24T16:57:25.692Z,9.90
2022-11-24T16:59:53.636Z,9.90
2022-11-24T17:02:21.514Z,9.80
2022-11-24T17:04:52.126Z,9.80
2022-11-24T17:07:20.334Z,9.80
2022-11-24T17:09:49.110Z,9.80
2022-11-24T17:12:17.004Z,9.70
2022-11-24T17:15:03.116Z,9.70
2022-11-24T17:17:34.167Z,9.70
2022-11-24T17:20:02.128Z,9.70
2022-11-24T17:22:30.037Z,9.60
2022-11-24T17:24:57.956Z,9.60
2022-11-24T17:27:25.941Z,9.60
2022-11-24T17:29:55.185Z,9.60
2022-11-24T17:32:23.119Z,9.60
2022-11-24T17:34:51.021Z,9.50
2022-11-24T17:37:18.939Z,9.50
2022-11-24T17:39:59.947Z,9.50
2022-11-24T17:42:34.722Z,9.50
2022-11-24T17:45:04.492Z,9.50
2022-11-24T17:47:32.412Z,9.50
2022-11-24T17:50:00.324Z,9.40
2022-11-24T17:52:30.512Z,9.40
2022-11-24T17:54:58.801Z,9.40
2022-11-24T17:57:26.928Z,9.40
2022-11-24T17:59:54.862Z,9.40
2022-11-24T18:02:24.152Z,9.40
2022-11-24T18:04:52.169Z,9.40
2022-11-24T18:07:20.139Z,9.40
2022-11-24T18:09:48.123Z,9.40
2022-11-24T18:12:16.077Z,9.40
2022-11-24T18:14:44.711Z,9.40
2022-11-24T18:17:12.652Z,9.40
2022-11-24T18:19:41.932Z,9.30
2022-11-24T18:22:10.311Z,9.30
2022-11-24T18:24:38.330Z,9.30
2022-11-24T18:27:06.398Z,9.30
2022-11-24T18:29:34.384Z,9.30
2022-11-24T18:32:02.356Z,9.20
2022-11-24T18:34:30.645Z,9.20
2022-11-24T18:36:59.920Z,9.10
2022-11-24T18:39:29.503Z,9.10
2022-11-24T18:41:57.455Z,9.00
2022-11-24T18:44:25.400Z,9.00
2022-11-24T18:46:53.670Z,8.90
2022-11-24T18:49:21.570Z,8.90
2022-11-24T18:51:49.457Z,8.80
2022-11-24T18:54:18.736Z,8.80
2022-11-24T18:56:46.764Z,8.70
2022-11-24T18:59:14.639Z,8.70
2022-11-24T19:01:42.597Z,8.60
2022-11-24T19:04:10.791Z,8.60
2022-11-24T19:06:39.532Z,8.60
2022-11-24T19:09:09.208Z,8.50
2022-11-24T19:11:40.033Z,8.50
2022-11-24T19:14:09.767Z,8.40
2022-11-24T19:16:37.907Z,8.40
2022-11-24T19:19:05.959Z,8.40
2022-11-24T19:21:37.151Z,8.40
2022-11-24T19:24:06.371Z,8.40
2022-11-24T19:26:35.794Z,8.30
2022-11-24T19:29:06.189Z,8.30
2022-11-24T19:31:34.494Z,8.30
2022-11-24T19:34:03.412Z,8.20
2022-11-24T19:36:31.428Z,8.20
2022-11-24T19:39:00.122Z,8.20
2022-11-24T19:41:30.633Z,8.10
2022-11-24T19:43:59.143Z,8.10
2022-11-24T19:46:30.120Z,8.10
2022-11-24T19:49:00.421Z,8.10
2022-11-24T19:51:30.656Z,8.00
2022-11-24T19:53:59.020Z,8.00
2022-11-24T19:56:28.419Z,8.00
2022-11-24T19:58:56.591Z,8.00
2022-11-24T20:01:26.530Z,7.90
2022-11-24T20:03:59.812Z,7.90
2022-11-24T20:06:29.156Z,7.90
2022-11-24T20:08:58.429Z,7.90
2022-11-24T20:11:26.447Z,7.80
2022-11-24T20:13:54.441Z,7.80
2022-11-24T20:16:26.559Z,7.80
2022-11-24T20:18:56.086Z,7.80
2022-11-24T20:21:28.696Z,7.80
2022-11-24T20:23:58.989Z,7.70
2022-11-24T20:26:29.350Z,7.70
2022-11-24T20:28:58.600Z,7.60
2022-11-24T20:31:28.311Z,7.60
2022-11-24T20:33:56.942Z,7.60
2022-11-24T20:36:28.768Z,7.60
2022-11-24T20:38:57.369Z,7.50
2022-11-24T20:41:28.002Z,7.50
2022-11-24T20:43:57.460Z,7.50
2022-11-24T20:46:27.175Z,7.40
2022-11-24T20:48:55.985Z,7.40
2022-11-24T20:51:26.671Z,7.30
2022-11-24T20:53:56.069Z,7.30
2022-11-24T20:56:26.072Z,7.30
2022-11-24T20:58:54.312Z,7.30
2022-11-24T21:01:25.036Z,7.20
2022-11-24T21:03:54.153Z,7.20
2022-11-24T21:06:22.603Z,7.20
2022-11-24T21:08:52.287Z,7.10
2022-11-24T21:11:21.870Z,7.10
2022-11-24T21:13:50.543Z,7.10
2022-11-24T21:16:20.640Z,7.00
2022-11-24T21:18:50.984Z,7.00
2022-11-24T21:21:19.944Z,7.00
2022-11-24T21:23:48.107Z,6.90
2022-11-24T21:26:18.802Z,6.90
2022-11-24T21:28:48.258Z,6.90
2022-11-24T21:31:18.811Z,6.90
2022-11-24T21:33:48.960Z,6.80
2022-11-24T21:36:19.436Z,6.80
2022-11-24T21:38:51.883Z,6.80
2022-11-24T21:41:21.996Z,6.70
2022-11-24T21:43:50.133Z,6.70
2022-11-24T21:46:18.614Z,6.70
2022-11-24T21:48:46.567Z,6.70
2022-11-24T21:51:16.024Z,6.60
2022-11-24T21:53:45.092Z,6.60
2022-11-24T21:56:15.307Z,6.60
2022-11-24T21:58:49.001Z,6.60
2022-11-24T22:01:19.071Z,6.60
2022-11-24T22:03:47.242Z,6.50
2022-11-24T22:06:16.550Z,6.50
2022-11-24T22:08:44.720Z,6.50
2022-11-24T22:11:14.799Z,6.50
2022-11-24T22:13:43.493Z,6.50
2022-11-24T22:16:14.835Z,6.50
2022-11-24T22:18:44.008Z,6.40
2022-11-24T22:21:14.283Z,6.40
2022-11-24T22:23:42.799Z,6.40
2022-11-24T22:26:13.478Z,6.40
2022-11-24T22:28:41.813Z,6.40
2022-11-24T22:31:13.621Z,6.30
2022-11-24T22:33:41.938Z,6.30
2022-11-24T22:36:10.878Z,6.30
2022-11-24T22:38:39.219Z,6.20
2022-11-24T22:41:09.035Z,6.20
2022-11-24T22:43:38.477Z,6.20
2022-11-24T22:46:07.523Z,6.20
2022-11-24T22:48:36.934Z,6.20
2022-11-24T22:51:06.467Z,6.20
2022-11-24T22:53:34.606Z,6.20
2022-11-24T22:56:03.515Z,6.20
2022-11-24T22:58:31.707Z,6.20
2022-11-24T23:01:05.018Z,6.20
2022-11-24T23:03:33.169Z,6.10
2022-11-24T23:06:03.244Z,6.10
2022-11-24T23:08:33.085Z,6.10
2022-11-24T23:11:02.020Z,6.10
2022-11-24T23:13:30.128Z,6.10
2022-11-24T23:16:02.545Z,6.10
2022-11-24T23:18:30.809Z,6.00
2022-11-24T23:21:04.532Z,6.00
2022-11-24T23:23:34.208Z,6.00
2022-11-24T23:26:02.261Z,6.00
2022-11-24T23:28:30.189Z,6.00
2022-11-24T23:31:02.300Z,6.00
2022-11-24T23:33:30.272Z,5.90
2022-11-24T23:36:01.471Z,5.90
2022-11-24T23:38:30.192Z,6.00
2022-11-24T23:40:59.730Z,5.90
2022-11-24T23:43:28.215Z,5.90
2022-11-24T23:45:56.163Z,5.90
2022-11-24T23:48:24.111Z,5.90
2022-11-24T23:50:52.148Z,5.90
2022-11-24T23:53:20.020Z,5.90
2022-11-24T23:55:54.440Z,5.80
2022-11-24T23:58:24.351Z,5.80
